Cherry Point, North Carolina
Current Conditions -  °F | °C
As of 7:54 PM on Wednesday 22 Oct 2014 (Local Time) from KNKT Reporting Station
Broken Clouds Broken Clouds  
Wind Chill: 58°   Ceiling: 7000
Heat Index: 58°   Visibility: 10mi
Dew Point: 49°   Wind: 7mph
Humidity: 72%   Direction: 290°WNW
Pressure: 29.95"   Gusts: NA
Location:  34.9°N, 76.88°W
Report Text: KNKT 222354Z 29006KT 10SM BKN070 14/09 A2995 RMK AO2 SLP139 T01440094 10183 20144 53008 $
Loading
Personal Weather Stations






























Interactive Weather Map
Tropical Storm Tracking
New forecast layout! Learn more

10-Day Weather Forecast

Advertisements
Track Severe Weather on mobile